Flight Track Log - Related Links

Times and Time Zones

All times are in EDT time to prevent confusion due to time zone crossing. See the ERR781 flight status page for this flight to view local times or setup timezone preferences in your user account.

Time Position Orientation Groundspeed Altitude Reporting Facility
EDT Latitude Longitude Course Direction KTS MPH feet Rate Location/Type
Mon 05:31:51 PM 70.1833 -148.3167 181° South 150 173 1,900  Level Anchorage Center
Mon 05:32:51 PM 70.1333 -148.3667 199° South 150 173 3,400 1,361 Climbing Anchorage Center
Mon 05:33:50 PM 70.1167 -148.4000 214° Southwest 170 196 4,600 800 Climbing Anchorage Center
Mon 05:34:51 PM 70.0667 -148.4167 186° South 200 230 5,000 198 Climbing Anchorage Center
Mon 05:35:51 PM 70.0000 -148.4167 180° South 230 265 5,000 700 Level Anchorage Center
Mon 05:36:51 PM 69.9333 -148.4167 180° South 200 230 6,400 1,450 Climbing Anchorage Center
Mon 05:37:00 PM 69.8471 -148.4170 181° South  Level Estimated
Mon 05:37:51 PM 69.8833 -148.4000 173° South 170 196 7,900  Level Anchorage Center
Mon 05:38:51 PM 69.8333 -148.3833 173° South 170 196 9,400 1,350 Climbing Anchorage Center
Mon 05:39:51 PM 69.7833 -148.3833 180° South 190 219 10,600 1,250 Climbing Anchorage Center
Mon 05:40:51 PM 69.7333 -148.3833 180° South 190 219 11,900 1,250 Climbing Anchorage Center
Mon 05:41:51 PM 69.6833 -148.3667 173° South 190 219 13,100 1,091 Climbing Anchorage Center
Mon 05:42:52 PM 69.6333 -148.3667 180° South 200 230 14,100 1,150 Climbing Anchorage Center
Mon 05:43:51 PM 69.5833 -148.3667 180° South 190 219 15,400 1,200 Climbing Anchorage Center
Mon 05:44:52 PM 69.5167 -148.3500 175° South 200 230 16,500 1,041 Climbing Anchorage Center
Mon 05:45:52 PM 69.4667 -148.3500 180° South 200 230 17,500 1,000 Climbing Anchorage Center
Mon 05:46:52 PM 69.4167 -148.3333 173° South 190 219 18,500 1,050 Climbing Anchorage Center
Mon 05:47:52 PM 69.3667 -148.3333 180° South 190 219 19,600 950 Climbing Anchorage Center
Mon 05:48:52 PM 69.3167 -148.3167 173° South 190 219 20,400 850 Climbing Anchorage Center
Mon 05:49:52 PM 69.2667 -148.3167 180° South 190 219 21,300 900 Climbing Anchorage Center
Mon 05:50:52 PM 69.2167 -148.3167 180° South 190 219 22,200 843 Climbing Anchorage Center
Mon 05:51:53 PM 69.1667 -148.3000 173° South 180 207 23,000 397 Climbing Anchorage Center
Mon 05:52:53 PM 69.1000 -148.3000 180° South 200 230 23,000  Level Anchorage Center
Mon 05:53:53 PM 69.0500 -148.2833 173° South 230 265 23,000  Level Anchorage Center
Mon 05:54:53 PM 68.9833 -148.2833 180° South 220 253 23,000  Level Anchorage Center
Mon 05:55:53 PM 68.9167 -148.2667 175° South 240 276 23,000  Level Anchorage Center
Mon 05:56:53 PM 68.8500 -148.2667 180° South 230 265 23,000  Level Anchorage Center
Mon 05:57:53 PM 68.7833 -148.2500 175° South 240 276 23,000  Level Anchorage Center
Mon 05:58:53 PM 68.7333 -148.2500 180° South 240 276 23,000  Level Anchorage Center
Mon 05:59:53 PM 68.6667 -148.2500 180° South 220 253 23,000  Level Anchorage Center
Mon 06:00:54 PM 68.6000 -148.2333 175° South 230 265 23,000  Level Anchorage Center
Mon 06:01:53 PM 68.5333 -148.2333 180° South 230 265 23,000  Level Anchorage Center
Mon 06:02:54 PM 68.4667 -148.2167 175° South 240 276 23,000  Level Anchorage Center
Mon 06:03:54 PM 68.4000 -148.2167 180° South 240 276 23,000  Level Anchorage Center
Mon 06:04:54 PM 68.3333 -148.2000 175° South 230 265 23,000  Level Anchorage Center
Mon 06:05:54 PM 68.2667 -148.2000 180° South 240 276 23,000  Level Anchorage Center
Mon 06:06:54 PM 68.2167 -148.1833 173° South 230 265 23,000  Level Anchorage Center
Mon 06:07:54 PM 68.1500 -148.1833 180° South 240 276 23,000  Level Anchorage Center
Mon 06:08:54 PM 68.0833 -148.1667 175° South 230 265 23,000  Level Anchorage Center
Mon 06:09:54 PM 68.0000 -148.1667 180° South 250 288 23,000  Level Anchorage Center
Mon 06:10:55 PM 67.9333 -148.1500 175° South 240 276 23,000  Level Anchorage Center
Mon 06:11:55 PM 67.8667 -148.1500 180° South 240 276 23,000  Level Anchorage Center
Mon 06:12:55 PM 67.8000 -148.1500 180° South 240 276 23,000  Level Anchorage Center
Mon 06:13:55 PM 67.7500 -148.1333 173° South 240 276 23,000  Level Anchorage Center
Mon 06:14:55 PM 67.6667 -148.1333 180° South 250 288 23,000  Level Anchorage Center
Mon 06:15:55 PM 67.6000 -148.1333 180° South 240 276 23,000  Level Anchorage Center
Mon 06:16:55 PM 67.5333 -148.1167 175° South 240 276 23,000  Level Anchorage Center
Mon 06:17:55 PM 67.4833 -148.1000 173° South 230 265 23,000  Level Anchorage Center
Mon 06:18:55 PM 67.4167 -148.1000 180° South 250 288 23,000  Level Anchorage Center
Mon 06:19:55 PM 67.3500 -148.0833 175° South 230 265 23,000  Level Anchorage Center
Mon 06:20:55 PM 67.2667 -148.0833 180° South 250 288 23,000  Level Anchorage Center
Mon 06:21:55 PM 67.2000 -148.0833 180° South 240 276 23,000  Level Anchorage Center
Mon 06:22:56 PM 67.1333 -148.0667 174° South 250 288 23,000  Level Anchorage Center
Mon 06:23:56 PM 67.0667 -148.0667 180° South 240 276 23,000  Level Anchorage Center
Mon 06:24:56 PM 67.0000 -148.0667 180° South 240 276 23,000  Level Anchorage Center
Mon 06:25:56 PM 66.9333 -148.0500 174° South 250 288 23,000  Level Anchorage Center
Mon 06:26:56 PM 66.8667 -148.0500 180° South 240 276 23,000  Level Anchorage Center
Mon 06:27:56 PM 66.8000 -148.0333 174° South 230 265 23,000  Level Anchorage Center
Mon 06:28:56 PM 66.7333 -148.0333 180° South 240 276 23,000  Level Anchorage Center
Mon 06:29:56 PM 66.6667 -148.0167 174° South 250 288 23,000  Level Anchorage Center
Mon 06:30:56 PM 66.6000 -148.0167 180° South 240 276 23,000  Level Anchorage Center
Mon 06:31:57 PM 66.5333 -148.0000 174° South 240 276 23,000  Level Anchorage Center
Mon 06:32:57 PM 66.4667 -148.0000 180° South 250 288 23,000  Level Anchorage Center
Mon 06:33:57 PM 66.4000 -148.0000 180° South 230 265 23,000  Level Anchorage Center
Mon 06:34:57 PM 66.3333 -147.9833 174° South 250 288 23,000  Level Anchorage Center
Mon 06:35:57 PM 66.2667 -147.9833 180° South 240 276 23,000  Level Anchorage Center
Mon 06:36:57 PM 66.2000 -147.9833 180° South 240 276 23,000 -500 Level Anchorage Center
Mon 06:37:57 PM 66.1333 -147.9667 174° South 250 288 22,000 -1,050 Descending Anchorage Center
Mon 06:38:57 PM 66.0500 -147.9667 180° South 290 334 20,900 -1,200 Descending Anchorage Center
Mon 06:39:57 PM 65.9667 -147.9500 175° South 270 311 19,600 -1,190 Descending Anchorage Center
Mon 06:40:58 PM 65.9000 -147.9333 174° South 270 311 18,500 -1,289 Descending Anchorage Center
Mon 06:41:58 PM 65.8167 -147.9333 180° South 270 311 17,000 -1,350 Descending Anchorage Center
Mon 06:42:58 PM 65.7500 -147.9333 180° South 280 322 15,800 -1,250 Descending Anchorage Center
Mon 06:43:58 PM 65.6667 -147.9167 175° South 280 322 14,500 -1,100 Descending Anchorage Center
Mon 06:44:58 PM 65.6000 -147.9167 180° South 270 311 13,600 -850 Descending Anchorage Center
Mon 06:45:58 PM 65.5167 -147.9167 180° South 270 311 12,800 -800 Descending Anchorage Center
Mon 06:47:00 PM 65.4535 -147.9061 176° South  Level FlightAware Approximate
Mon 06:54:00 PM 65.0247 -147.8667 180° South  Level FlightAware Approximate
Mon 06:55:00 PM 64.9634 -147.8667 180° South  Level FlightAware Approximate
Mon 06:56:00 PM 64.9023 -147.8571 175° South  Level FlightAware Approximate
Mon 06:57:00 PM 64.8411 -147.8500 180° South  Level FlightAware Approximate
Mon 06:58:00 PM 64.8151 -147.8564 180° South  Level Estimated
Mon 06:59:00 PM 64.8151 -147.8564 180° South  Level Estimated
Mon 07:00:00 PM 64.8151 -147.8564 180° South  Level Estimated
Mon 07:01:00 PM 64.8151 -147.8564 180° South  Level Estimated
Mon 07:02:00 PM 64.8151 -147.8564 180° South  Level Estimated
Mon 07:03:00 PM 64.8151 -147.8564 180° South  Level Estimated
Mon 07:04:00 PM 64.8151 -147.8564 180° South  Level Estimated
Mon 07:05:00 PM 64.8151 -147.8564 180° South  Level Estimated
Mon 07:06:00 PM 64.8151 -147.8564 180° South  Level Estimated
Mon 07:07:00 PM 64.8151 -147.8564 180° South  Level Estimated
Mon 07:08:00 PM 64.8151 -147.8564 180° South  Level Estimated
Mon 07:09:00 PM 64.8151 -147.8564 180° South  Level Estimated
Mon 07:10:00 PM 64.8151 -147.8564 180° South  Level Estimated
Mon 07:11:00 PM 64.8151 -147.8564 180° South  Level Estimated
Mon 07:12:00 PM 64.8151 -147.8564 180° South  Level Estimated
Mon 07:13:00 PM 64.8151 -147.8564 180° South  Level Estimated
Mon 07:14:00 PM 64.8151 -147.8564 180° South  Level Estimated
Mon 07:15:00 PM 64.8151 -147.8564 180° South  Level Estimated

Login

Don't have an account? Register now (free) for customized features, flight alerts, and more!